Bookmark and Share
Track history (hours):
 

Agia Zoni I

Last reported at 2013-May-02 10:21 UTC. Time now 2014-Apr-20 23:43 UTC.
Position N 37°58' E 023°35'.
Warning: this ship's position is months out of date.

Length 79 m; draft 4.3 m.

Type: Ship. MMSI: 240785000.

NotesDate/timePositionNaut miles runAvg speedWind from/ knotsBaromVisibWave heightAir tempDewpointWater temp
2013-May-02 10:21N 37°58' E 023°35'3 4.0
2013-May-02 09:33N 37°54' E 023°34'0 0.0
2013-May-02 08:32N 37°54' E 023°34'0 0.0
2013-May-02 07:30N 37°54' E 023°34'0 0.0
2013-May-02 06:23N 37°54' E 023°34'0 0.0
2013-May-02 04:31N 37°54' E 023°34'3 3.2
2013-May-02 03:33N 37°58' E 023°35'1 0.0
2013-Apr-30 18:32N 37°58' E 023°33'4 0.7
2013-Apr-30 13:12N 38°01' E 023°32'0 0.0
2013-Apr-30 08:18N 38°01' E 023°32'  
2013-Apr-27 19:06N 37°58' E 023°35'0 0.9
2013-Apr-27 18:32N 37°57' E 023°35'0 0.0
2013-Apr-27 17:32N 37°57' E 023°35'0 0.0
2013-Apr-27 16:33N 37°57' E 023°35'0 0.0
2013-Apr-27 15:31N 37°57' E 023°35'0 0.0
2013-Apr-27 14:27N 37°57' E 023°35'0 0.0
2013-Apr-27 13:24N 37°57' E 023°35'0 0.5
2013-Apr-27 12:33N 37°57' E 023°35'1 0.6
2013-Apr-27 11:32N 37°58' E 023°35'5 4.7
2013-Apr-27 10:33N 37°53' E 023°33'1 1.5
2013-Apr-27 09:33N 37°52' E 023°32'0 0.1
2013-Apr-27 08:33N 37°52' E 023°32'0 0.0
2013-Apr-27 07:33N 37°52' E 023°32'0 0.0
2013-Apr-27 06:32N 37°52' E 023°32'0 0.0
2013-Apr-27 04:31N 37°52' E 023°32'4 3.9
2013-Apr-27 03:31N 37°55' E 023°34'2 0.1
2013-Apr-25 16:26N 37°58' E 023°35'0 0.0
2013-Apr-25 15:28N 37°58' E 023°35'0 0.0
2013-Apr-25 14:33N 37°58' E 023°35'0 0.0
2013-Apr-25 13:32N 37°58' E 023°35'0 0.0
2013-Apr-25 12:31N 37°58' E 023°35'0 0.0
2013-Apr-25 11:24N 37°58' E 023°35'0 0.0
2013-Apr-25 10:28N 37°58' E 023°35'0 0.0
2013-Apr-25 09:21N 37°58' E 023°35'0 0.3
2013-Apr-25 08:20N 37°57' E 023°35'3 3.2
2013-Apr-25 07:28N 37°55' E 023°33'0 0.0
2013-Apr-25 06:25N 37°55' E 023°33'3 1.7
2013-Apr-25 04:33N 37°58' E 023°35'1 0.1
2013-Apr-24 19:33N 37°57' E 023°34'4 0.4
2013-Apr-24 09:10N 38°01' E 023°35'0 0.0
2013-Apr-24 08:04N 38°01' E 023°35'2 3.3
2013-Apr-24 07:31N 38°00' E 023°33'3 0.1
2013-Apr-23 11:11N 37°58' E 023°35'1 2.0
2013-Apr-23 10:29N 37°58' E 023°37'0 0.0
2013-Apr-23 09:33N 37°58' E 023°37'0 0.0
2013-Apr-23 08:32N 37°58' E 023°37'0 0.0
2013-Apr-23 07:29N 37°58' E 023°37'0 0.0
2013-Apr-23 06:31N 37°58' E 023°37'0 0.3
2013-Apr-23 05:33N 37°57' E 023°36'  

Dump ship's entire track history

sailing weather and tide predictions

Agia Zoni I — SVAD5 — position and weather